Imagination — C6FN2 — position and weather

sailwx.info

Track history (hours):
 
Tides and Currents Weather Stations Pressure Air Temp Water Temp Dewpoint Dewpoint Depression Visibility Wind Speed Wind Dir Waves Ship Positions

Imagination

Operator: Carnival Cruise Lines

Last reported at 2018-May-28 00:58 UTC. Time now 2018-May-28 01:10 UTC.
Position N 33°45' W 118°11'.

Type: Ship. MMSI: 309933000.

Date/timePositionNaut miles runAvg speedWind from/ knotsBaromVisibWave heightAir tempDewpointWater temp
2018-May-28 00:58N 33°45' W 118°11'0 0.0
2018-May-28 00:22N 33°45' W 118°11'0 0.0
2018-May-27 23:58N 33°45' W 118°11'0 0.0
2018-May-27 23:28N 33°45' W 118°11'0 0.0
2018-May-27 22:58N 33°45' W 118°11'0 0.0
2018-May-27 22:25N 33°45' W 118°11'0 0.0
2018-May-27 22:00N 33°45' W 118°11'0 0.0
2018-May-27 20:57N 33°45' W 118°11'0 0.0
2018-May-27 20:29N 33°45' W 118°11'0 0.0
2018-May-27 19:59N 33°45' W 118°11'0 0.0
2018-May-27 19:26N 33°45' W 118°11'0 0.0
2018-May-27 18:59N 33°45' W 118°11'0 0.0
2018-May-27 18:29N 33°45' W 118°11'0 0.0
2018-May-27 17:58N 33°45' W 118°11'0 0.0
2018-May-27 17:28N 33°45' W 118°11'0 0.0
2018-May-27 16:58N 33°45' W 118°11'0 0.0
2018-May-27 16:28N 33°45' W 118°11'0 0.0
2018-May-27 15:58N 33°45' W 118°11'0 0.0
2018-May-27 15:30N 33°45' W 118°11'0 0.0
2018-May-27 15:00N 33°45' W 118°11'0 0.0
2018-May-27 14:27N 33°45' W 118°11'0 0.0
2018-May-27 14:00N 33°45' W 118°11'0 0.0
2018-May-27 13:17N 33°45' W 118°11'0 0.0
2018-May-27 13:00N 33°45' W 118°11'1 1.0
2018-May-27 12:30N 33°45' W 118°11'4 8.1
2018-May-27 12:00N 33°40' W 118°11'510.2
2018-May-27 11:29N 33°35' W 118°10'710.6
2018-May-27 10:48N 33°28' W 118°06'411.9
2018-May-27 10:27N 33°25' W 118°05'512.0
2018-May-27 10:00N 33°20' W 118°02'611.6
2018-May-27 09:30N 33°14' W 117°60'611.4
2018-May-27 09:00N 33°09' W 117°57'611.3
2018-May-27 08:29N 33°04' W 117°55'714.9
2018-May-27 08:00N 32°57' W 117°52'815.0
2018-May-27 07:30N 32°49' W 117°50'715.0
2018-May-27 07:00N 32°42' W 117°47'1714.9
2018-May-27 05:51N 32°26' W 117°40'3619.1
2018-May-27 04:00N 32°00' W 117°12'47 1.9 300 / 151022.310.8 15.013.317.0
2018-May-26 03:00N 31°30' W 117°54'37 3.1 300 / 241022.310.8 16.014.417.0
2018-May-25 15:00N 32°06' W 117°42'14 8.5 330 / 81023.310.8 15.013.317.0
2018-May-25 13:23N 32°19' W 117°46'2 6.6
2018-May-25 13:00N 32°22' W 117°47'3 6.7
2018-May-25 12:30N 32°25' W 117°47'3 6.6
2018-May-25 12:00N 32°28' W 117°47'3 6.7
2018-May-25 11:30N 32°32' W 117°48'3 6.6
2018-May-25 11:00N 32°35' W 117°48'3 6.6
2018-May-25 10:30N 32°38' W 117°49'3 6.7
2018-May-25 10:00N 32°41' W 117°50'3 6.7
2018-May-25 09:30N 32°45' W 117°52'3 6.8
2018-May-25 09:00N 32°48' W 117°53'3 6.7
2018-May-25 08:29N 32°51' W 117°54'3 6.6
2018-May-25 08:00N 32°54' W 117°56'3 6.7
2018-May-25 07:30N 32°57' W 117°57'3 6.4
2018-May-25 07:00N 33°00' W 117°58'3 6.8
2018-May-25 06:30N 33°03' W 117°60'4 7.1
2018-May-25 06:00N 33°07' W 118°01'3 6.9
2018-May-25 05:30N 33°10' W 118°02'3 6.7
2018-May-25 05:00N 33°13' W 118°03'4 8.4
2018-May-25 04:29N 33°17' W 118°05'13 9.7
2018-May-25 03:12N 33°29' W 118°10'630.6
2018-May-25 03:00N 33°24' W 118°06'1050.4 300 / 121020.310.8 16.014.418.0
2018-May-25 02:47N 33°33' W 118°12'3 9.9
2018-May-25 02:30N 33°36' W 118°13'5 9.6
2018-May-25 02:00N 33°40' W 118°12'4 8.7
2018-May-25 01:30N 33°44' W 118°11'1 1.3
2018-May-25 00:59N 33°45' W 118°11'0 0.0
2018-May-25 00:29N 33°45' W 118°11'0 0.0
2018-May-24 23:59N 33°45' W 118°11'0 0.0
2018-May-24 23:26N 33°45' W 118°11'0 0.0
2018-May-24 22:59N 33°45' W 118°11'0 0.0
2018-May-24 22:28N 33°45' W 118°11'0 0.0
2018-May-24 21:58N 33°45' W 118°11'0 0.0
2018-May-24 21:28N 33°45' W 118°11'0 0.0
2018-May-24 20:58N 33°45' W 118°11'0 0.0
2018-May-24 20:27N 33°45' W 118°11'0 0.0
2018-May-24 20:00N 33°45' W 118°11'0 0.0
2018-May-24 19:30N 33°45' W 118°11'0 0.0
2018-May-24 19:00N 33°45' W 118°11'0 0.0
2018-May-24 18:30N 33°45' W 118°11'0 0.0
2018-May-24 17:59N 33°45' W 118°11'0 0.0
2018-May-24 17:29N 33°45' W 118°11'0 0.0
2018-May-24 16:59N 33°45' W 118°11'0 0.0
2018-May-24 16:29N 33°45' W 118°11'0 0.0
2018-May-24 15:59N 33°45' W 118°11'0 0.0
2018-May-24 15:28N 33°45' W 118°11'0 0.0
2018-May-24 14:58N 33°45' W 118°11'0 0.0
2018-May-24 14:28N 33°45' W 118°11'0 0.0
2018-May-24 13:58N 33°45' W 118°11'0 0.0
2018-May-24 13:30N 33°45' W 118°11'26 5.7
2018-May-24 09:00N 33°20' W 118°03'3 6.8
2018-May-24 08:30N 33°17' W 118°01'3 6.7
2018-May-24 08:00N 33°14' W 117°60'3 7.0
2018-May-24 07:30N 33°11' W 117°58'4 7.4
2018-May-24 07:00N 33°08' W 117°56'4 7.2
2018-May-24 06:30N 33°04' W 117°54'4 7.2
2018-May-24 06:00N 33°01' W 117°53'4 7.1
2018-May-24 05:30N 32°57' W 117°52'4 7.2
2018-May-24 05:00N 32°54' W 117°50'4 7.6
2018-May-24 04:30N 32°50' W 117°49'4 7.6
2018-May-24 04:01N 32°47' W 117°49'4 7.3
2018-May-24 03:29N 32°43' W 117°48'1 1.5
2018-May-24 03:00N 32°42' W 117°48'420.9 280 / 81018.210.8 16.014.418.0
2018-May-24 02:48N 32°38' W 117°47'5 7.1
2018-May-24 02:02N 32°33' W 117°46'0 7.2
2018-May-24 02:00N 32°32' W 117°46'4 6.9
2018-May-24 01:29N 32°29' W 117°46'3 6.9
2018-May-24 00:59N 32°25' W 117°46'3 7.0
2018-May-24 00:30N 32°22' W 117°45'4 6.9
2018-May-23 23:54N 32°18' W 117°45'5 7.1
2018-May-23 23:15N 32°13' W 117°44'6 7.2
2018-May-23 22:27N 32°08' W 117°44'32 4.2
2018-May-23 15:00N 31°42' W 118°06'62 5.1 300 / 71019.310.8 15.013.317.0
2018-May-23 03:00N 31°48' W 116°54'50 2.5 310 / 71016.210.8 15.013.317.2
2018-May-22 07:17N 32°19' W 117°40'3 9.6
2018-May-22 07:00N 32°22' W 117°41'5 9.8
2018-May-22 06:30N 32°26' W 117°43'5 9.8
2018-May-22 06:00N 32°31' W 117°45'510.0
2018-May-22 05:30N 32°36' W 117°47'5 9.8
2018-May-22 05:01N 32°40' W 117°48'5 9.5
2018-May-22 04:30N 32°45' W 117°49'5 9.5
2018-May-22 04:00N 32°50' W 117°50'5 9.5
2018-May-22 03:30N 32°54' W 117°51'5 9.7
2018-May-22 03:00N 32°58' W 117°54'7491.3
2018-May-22 03:00N 32°54' W 117°48'1123.6 280 / 101015.210.8 16.014.417.0
2018-May-22 02:30N 33°02' W 117°58'5 9.5
2018-May-22 02:00N 33°05' W 118°02'5 9.6
2018-May-22 01:30N 33°09' W 118°05'5 9.8
2018-May-22 01:00N 33°13' W 118°09'5 9.9
2018-May-22 00:29N 33°17' W 118°13'59 7.9
2018-May-21 17:00N 32°18' W 118°18'46 8.3 1015.210.8 16.012.717.0
2018-May-21 11:25N 33°04' W 118°15'3 7.1
2018-May-21 11:00N 33°02' W 118°13'3 6.9
2018-May-21 10:30N 32°60' W 118°10'3 6.8
2018-May-21 10:00N 32°58' W 118°07'3 6.7
2018-May-21 09:29N 32°55' W 118°04'4 7.1
2018-May-21 09:00N 32°53' W 118°01'3 6.3
2018-May-21 08:30N 32°52' W 117°57'3 6.2
2018-May-21 07:59N 32°55' W 117°55'3 6.7
2018-May-21 07:30N 32°58' W 117°56'3 6.7
2018-May-21 07:00N 33°01' W 117°58'3 6.9
2018-May-21 06:30N 33°04' W 117°60'3 6.9
2018-May-21 06:00N 33°07' W 118°02'3 6.7
2018-May-21 05:30N 33°10' W 118°04'4 7.2
2018-May-21 05:00N 33°13' W 118°05'5 9.7
2018-May-21 04:30N 33°18' W 118°06'6 3.9
2018-May-21 03:00N 33°24' W 118°06'10604.6 290 / 151019.310.8 16.012.717.0
2018-May-21 02:59N 33°32' W 118°12'5 9.6
2018-May-21 02:30N 33°37' W 118°13'5 9.1
2018-May-21 02:00N 33°41' W 118°12'4 7.9
2018-May-21 01:30N 33°45' W 118°11'0 0.2
2018-May-21 01:00N 33°45' W 118°11'0 0.0
2018-May-21 00:27N 33°45' W 118°11'0 0.0
2018-May-21 00:00N 33°45' W 118°11'0 0.0
2018-May-20 23:29N 33°45' W 118°11'0 0.0
2018-May-20 22:59N 33°45' W 118°11'0 0.0
2018-May-20 22:29N 33°45' W 118°11'0 0.0
2018-May-20 21:59N 33°45' W 118°11'0 0.0
2018-May-20 21:29N 33°45' W 118°11'0 0.0
2018-May-20 20:58N 33°45' W 118°11'0 0.0
2018-May-20 20:28N 33°45' W 118°11'0 0.0
2018-May-20 19:58N 33°45' W 118°11'0 0.0
2018-May-20 19:28N 33°45' W 118°11'0 0.0
2018-May-20 19:00N 33°45' W 118°11'0 0.0
2018-May-20 18:30N 33°45' W 118°11'0 0.0
2018-May-20 17:57N 33°45' W 118°11'0 0.0
2018-May-20 17:30N 33°45' W 118°11'0 0.0
2018-May-20 16:57N 33°45' W 118°11'0 0.0
2018-May-20 16:26N 33°45' W 118°11'0 0.0
2018-May-20 15:59N 33°45' W 118°11'0 0.0
2018-May-20 15:29N 33°45' W 118°11'0 0.0
2018-May-20 14:59N 33°45' W 118°11'0 0.0
2018-May-20 14:29N 33°45' W 118°11'0 0.0
2018-May-20 13:58N 33°45' W 118°11'0 0.0
2018-May-20 13:28N 33°45' W 118°11'0 0.0
2018-May-20 13:00N 33°45' W 118°11'0 0.6
2018-May-20 12:29N 33°45' W 118°11'3 6.8
2018-May-20 12:00N 33°42' W 118°11'5 9.7
2018-May-20 11:30N 33°37' W 118°10'611.3
2018-May-20 11:00N 33°31' W 118°08'510.5
2018-May-20 10:30N 33°26' W 118°05'711.6
2018-May-20 09:55N 33°20' W 118°02'511.9
2018-May-20 09:30N 33°16' W 118°00'611.8
2018-May-20 09:00N 33°10' W 117°58'611.4
2018-May-20 08:30N 33°05' W 117°55'612.2
2018-May-20 08:00N 32°59' W 117°52'816.0
2018-May-20 07:30N 32°52' W 117°50'816.1
2018-May-20 07:00N 32°44' W 117°48'1815.4
2018-May-20 05:48N 32°26' W 117°41'3619.7
2018-May-20 04:00N 32°00' W 117°12'43 1.7 350 / 101018.210.8 16.012.717.0
2018-May-19 03:00N 31°30' W 117°48'47 3.9 320 / 201018.210.8 15.013.317.0
2018-May-18 15:00N 32°06' W 117°12'3220.3 320 / 151019.310.8 16.012.717.0
2018-May-18 13:25N 32°19' W 117°46'3 6.7
2018-May-18 13:00N 32°22' W 117°47'3 6.6
2018-May-18 12:30N 32°25' W 117°47'3 6.7
2018-May-18 12:00N 32°29' W 117°47'3 6.8
2018-May-18 11:30N 32°32' W 117°48'3 6.6
2018-May-18 11:00N 32°35' W 117°48'3 6.6
2018-May-18 10:30N 32°39' W 117°49'3 6.7
2018-May-18 10:00N 32°42' W 117°50'3 6.7
2018-May-18 09:30N 32°45' W 117°52'3 6.6
2018-May-18 09:00N 32°48' W 117°53'3 6.5
2018-May-18 08:30N 32°51' W 117°54'3 6.4
2018-May-18 08:00N 32°54' W 117°56'3 6.6
2018-May-18 07:30N 32°57' W 117°57'3 6.6
2018-May-18 07:00N 33°00' W 117°59'3 6.6
2018-May-18 06:30N 33°03' W 117°60'3 6.9
2018-May-18 06:00N 33°07' W 118°01'4 7.3
2018-May-18 05:30N 33°10' W 118°02'5 9.5
2018-May-18 05:00N 33°14' W 118°04'5 9.5
2018-May-18 04:30N 33°19' W 118°06'13 9.9
2018-May-18 03:13N 33°31' W 118°11'2 9.8
2018-May-18 03:00N 33°33' W 118°12'6476.0
2018-May-18 03:00N 33°30' W 118°06'919.2 280 / 161019.310.8 16.012.717.0
2018-May-18 02:30N 33°38' W 118°13'4 9.0
2018-May-18 02:00N 33°42' W 118°11'3 6.4
2018-May-18 01:30N 33°45' W 118°11'0 0.1
2018-May-18 01:00N 33°45' W 118°11'  
Track history (hours):
 
Tides and Currents Weather Stations Pressure Air Temp Water Temp Dewpoint Dewpoint Depression Visibility Wind Speed Wind Dir Waves Ship Positions

Imagination

Operator: Carnival Cruise Lines

Last reported at 2018-May-28 00:58 UTC. Time now 2018-May-28 01:10 UTC.
Position N 33°45' W 118°11'.

Type: Ship. MMSI: 309933000.

Date/timePositionNaut miles runAvg speedWind from/ knotsBaromVisibWave heightAir tempDewpointWater temp
2018-May-28 00:58N 33°45' W 118°11'0 0.0
2018-May-28 00:22N 33°45' W 118°11'0 0.0
2018-May-27 23:58N 33°45' W 118°11'0 0.0
2018-May-27 23:28N 33°45' W 118°11'0 0.0
2018-May-27 22:58N 33°45' W 118°11'0 0.0
2018-May-27 22:25N 33°45' W 118°11'0 0.0
2018-May-27 22:00N 33°45' W 118°11'0 0.0
2018-May-27 20:57N 33°45' W 118°11'0 0.0
2018-May-27 20:29N 33°45' W 118°11'0 0.0
2018-May-27 19:59N 33°45' W 118°11'0 0.0
2018-May-27 19:26N 33°45' W 118°11'0 0.0
2018-May-27 18:59N 33°45' W 118°11'0 0.0
2018-May-27 18:29N 33°45' W 118°11'0 0.0
2018-May-27 17:58N 33°45' W 118°11'0 0.0
2018-May-27 17:28N 33°45' W 118°11'0 0.0
2018-May-27 16:58N 33°45' W 118°11'0 0.0
2018-May-27 16:28N 33°45' W 118°11'0 0.0
2018-May-27 15:58N 33°45' W 118°11'0 0.0
2018-May-27 15:30N 33°45' W 118°11'0 0.0
2018-May-27 15:00N 33°45' W 118°11'0 0.0
2018-May-27 14:27N 33°45' W 118°11'0 0.0
2018-May-27 14:00N 33°45' W 118°11'0 0.0
2018-May-27 13:17N 33°45' W 118°11'0 0.0
2018-May-27 13:00N 33°45' W 118°11'1 1.0
2018-May-27 12:30N 33°45' W 118°11'4 8.1
2018-May-27 12:00N 33°40' W 118°11'510.2
2018-May-27 11:29N 33°35' W 118°10'710.6
2018-May-27 10:48N 33°28' W 118°06'411.9
2018-May-27 10:27N 33°25' W 118°05'512.0
2018-May-27 10:00N 33°20' W 118°02'611.6
2018-May-27 09:30N 33°14' W 117°60'611.4
2018-May-27 09:00N 33°09' W 117°57'611.3
2018-May-27 08:29N 33°04' W 117°55'714.9
2018-May-27 08:00N 32°57' W 117°52'815.0
2018-May-27 07:30N 32°49' W 117°50'715.0
2018-May-27 07:00N 32°42' W 117°47'1714.9
2018-May-27 05:51N 32°26' W 117°40'3619.1
2018-May-27 04:00N 32°00' W 117°12'47 1.9 300 / 151022.310.8 15.013.317.0
2018-May-26 03:00N 31°30' W 117°54'37 3.1 300 / 241022.310.8 16.014.417.0
2018-May-25 15:00N 32°06' W 117°42'14 8.5 330 / 81023.310.8 15.013.317.0
2018-May-25 13:23N 32°19' W 117°46'2 6.6
2018-May-25 13:00N 32°22' W 117°47'3 6.7
2018-May-25 12:30N 32°25' W 117°47'3 6.6
2018-May-25 12:00N 32°28' W 117°47'3 6.7
2018-May-25 11:30N 32°32' W 117°48'3 6.6
2018-May-25 11:00N 32°35' W 117°48'3 6.6
2018-May-25 10:30N 32°38' W 117°49'3 6.7
2018-May-25 10:00N 32°41' W 117°50'3 6.7
2018-May-25 09:30N 32°45' W 117°52'3 6.8
2018-May-25 09:00N 32°48' W 117°53'3 6.7
2018-May-25 08:29N 32°51' W 117°54'3 6.6
2018-May-25 08:00N 32°54' W 117°56'3 6.7
2018-May-25 07:30N 32°57' W 117°57'3 6.4
2018-May-25 07:00N 33°00' W 117°58'3 6.8
2018-May-25 06:30N 33°03' W 117°60'4 7.1
2018-May-25 06:00N 33°07' W 118°01'3 6.9
2018-May-25 05:30N 33°10' W 118°02'3 6.7
2018-May-25 05:00N 33°13' W 118°03'4 8.4
2018-May-25 04:29N 33°17' W 118°05'13 9.7
2018-May-25 03:12N 33°29' W 118°10'630.6
2018-May-25 03:00N 33°24' W 118°06'1050.4 300 / 121020.310.8 16.014.418.0
2018-May-25 02:47N 33°33' W 118°12'3 9.9
2018-May-25 02:30N 33°36' W 118°13'5 9.6
2018-May-25 02:00N 33°40' W 118°12'4 8.7
2018-May-25 01:30N 33°44' W 118°11'1 1.3
2018-May-25 00:59N 33°45' W 118°11'0 0.0
2018-May-25 00:29N 33°45' W 118°11'0 0.0
2018-May-24 23:59N 33°45' W 118°11'0 0.0
2018-May-24 23:26N 33°45' W 118°11'0 0.0
2018-May-24 22:59N 33°45' W 118°11'0 0.0
2018-May-24 22:28N 33°45' W 118°11'0 0.0
2018-May-24 21:58N 33°45' W 118°11'0 0.0
2018-May-24 21:28N 33°45' W 118°11'0 0.0
2018-May-24 20:58N 33°45' W 118°11'0 0.0
2018-May-24 20:27N 33°45' W 118°11'0 0.0
2018-May-24 20:00N 33°45' W 118°11'0 0.0
2018-May-24 19:30N 33°45' W 118°11'0 0.0
2018-May-24 19:00N 33°45' W 118°11'0 0.0
2018-May-24 18:30N 33°45' W 118°11'0 0.0
2018-May-24 17:59N 33°45' W 118°11'0 0.0
2018-May-24 17:29N 33°45' W 118°11'0 0.0
2018-May-24 16:59N 33°45' W 118°11'0 0.0
2018-May-24 16:29N 33°45' W 118°11'0 0.0
2018-May-24 15:59N 33°45' W 118°11'0 0.0
2018-May-24 15:28N 33°45' W 118°11'0 0.0
2018-May-24 14:58N 33°45' W 118°11'0 0.0
2018-May-24 14:28N 33°45' W 118°11'0 0.0
2018-May-24 13:58N 33°45' W 118°11'0 0.0
2018-May-24 13:30N 33°45' W 118°11'26 5.7
2018-May-24 09:00N 33°20' W 118°03'3 6.8
2018-May-24 08:30N 33°17' W 118°01'3 6.7
2018-May-24 08:00N 33°14' W 117°60'3 7.0
2018-May-24 07:30N 33°11' W 117°58'4 7.4
2018-May-24 07:00N 33°08' W 117°56'4 7.2
2018-May-24 06:30N 33°04' W 117°54'4 7.2
2018-May-24 06:00N 33°01' W 117°53'4 7.1
2018-May-24 05:30N 32°57' W 117°52'4 7.2
2018-May-24 05:00N 32°54' W 117°50'4 7.6
2018-May-24 04:30N 32°50' W 117°49'4 7.6
2018-May-24 04:01N 32°47' W 117°49'4 7.3
2018-May-24 03:29N 32°43' W 117°48'1 1.5
2018-May-24 03:00N 32°42' W 117°48'420.9 280 / 81018.210.8 16.014.418.0
2018-May-24 02:48N 32°38' W 117°47'5 7.1
2018-May-24 02:02N 32°33' W 117°46'0 7.2
2018-May-24 02:00N 32°32' W 117°46'4 6.9
2018-May-24 01:29N 32°29' W 117°46'3 6.9
2018-May-24 00:59N 32°25' W 117°46'3 7.0
2018-May-24 00:30N 32°22' W 117°45'4 6.9
2018-May-23 23:54N 32°18' W 117°45'5 7.1
2018-May-23 23:15N 32°13' W 117°44'6 7.2
2018-May-23 22:27N 32°08' W 117°44'32 4.2
2018-May-23 15:00N 31°42' W 118°06'62 5.1 300 / 71019.310.8 15.013.317.0
2018-May-23 03:00N 31°48' W 116°54'50 2.5 310 / 71016.210.8 15.013.317.2
2018-May-22 07:17N 32°19' W 117°40'3 9.6
2018-May-22 07:00N 32°22' W 117°41'5 9.8
2018-May-22 06:30N 32°26' W 117°43'5 9.8
2018-May-22 06:00N 32°31' W 117°45'510.0
2018-May-22 05:30N 32°36' W 117°47'5 9.8
2018-May-22 05:01N 32°40' W 117°48'5 9.5
2018-May-22 04:30N 32°45' W 117°49'5 9.5
2018-May-22 04:00N 32°50' W 117°50'5 9.5
2018-May-22 03:30N 32°54' W 117°51'5 9.7
2018-May-22 03:00N 32°58' W 117°54'7491.3
2018-May-22 03:00N 32°54' W 117°48'1123.6 280 / 101015.210.8 16.014.417.0
2018-May-22 02:30N 33°02' W 117°58'5 9.5
2018-May-22 02:00N 33°05' W 118°02'5 9.6
2018-May-22 01:30N 33°09' W 118°05'5 9.8
2018-May-22 01:00N 33°13' W 118°09'5 9.9
2018-May-22 00:29N 33°17' W 118°13'59 7.9
2018-May-21 17:00N 32°18' W 118°18'46 8.3 1015.210.8 16.012.717.0
2018-May-21 11:25N 33°04' W 118°15'3 7.1
2018-May-21 11:00N 33°02' W 118°13'3 6.9
2018-May-21 10:30N 32°60' W 118°10'3 6.8
2018-May-21 10:00N 32°58' W 118°07'3 6.7
2018-May-21 09:29N 32°55' W 118°04'4 7.1
2018-May-21 09:00N 32°53' W 118°01'3 6.3
2018-May-21 08:30N 32°52' W 117°57'3 6.2
2018-May-21 07:59N 32°55' W 117°55'3 6.7
2018-May-21 07:30N 32°58' W 117°56'3 6.7
2018-May-21 07:00N 33°01' W 117°58'3 6.9
2018-May-21 06:30N 33°04' W 117°60'3 6.9
2018-May-21 06:00N 33°07' W 118°02'3 6.7
2018-May-21 05:30N 33°10' W 118°04'4 7.2
2018-May-21 05:00N 33°13' W 118°05'5 9.7
2018-May-21 04:30N 33°18' W 118°06'6 3.9
2018-May-21 03:00N 33°24' W 118°06'10604.6 290 / 151019.310.8 16.012.717.0
2018-May-21 02:59N 33°32' W 118°12'5 9.6
2018-May-21 02:30N 33°37' W 118°13'5 9.1
2018-May-21 02:00N 33°41' W 118°12'4 7.9
2018-May-21 01:30N 33°45' W 118°11'0 0.2
2018-May-21 01:00N 33°45' W 118°11'0 0.0
2018-May-21 00:27N 33°45' W 118°11'0 0.0
2018-May-21 00:00N 33°45' W 118°11'0 0.0
2018-May-20 23:29N 33°45' W 118°11'0 0.0
2018-May-20 22:59N 33°45' W 118°11'0 0.0
2018-May-20 22:29N 33°45' W 118°11'0 0.0
2018-May-20 21:59N 33°45' W 118°11'0 0.0
2018-May-20 21:29N 33°45' W 118°11'0 0.0
2018-May-20 20:58N 33°45' W 118°11'0 0.0
2018-May-20 20:28N 33°45' W 118°11'0 0.0
2018-May-20 19:58N 33°45' W 118°11'0 0.0
2018-May-20 19:28N 33°45' W 118°11'0 0.0
2018-May-20 19:00N 33°45' W 118°11'0 0.0
2018-May-20 18:30N 33°45' W 118°11'0 0.0
2018-May-20 17:57N 33°45' W 118°11'0 0.0
2018-May-20 17:30N 33°45' W 118°11'0 0.0
2018-May-20 16:57N 33°45' W 118°11'0 0.0
2018-May-20 16:26N 33°45' W 118°11'0 0.0
2018-May-20 15:59N 33°45' W 118°11'0 0.0
2018-May-20 15:29N 33°45' W 118°11'0 0.0
2018-May-20 14:59N 33°45' W 118°11'0 0.0
2018-May-20 14:29N 33°45' W 118°11'0 0.0
2018-May-20 13:58N 33°45' W 118°11'0 0.0
2018-May-20 13:28N 33°45' W 118°11'0 0.0
2018-May-20 13:00N 33°45' W 118°11'0 0.6
2018-May-20 12:29N 33°45' W 118°11'3 6.8
2018-May-20 12:00N 33°42' W 118°11'5 9.7
2018-May-20 11:30N 33°37' W 118°10'611.3
2018-May-20 11:00N 33°31' W 118°08'510.5
2018-May-20 10:30N 33°26' W 118°05'711.6
2018-May-20 09:55N 33°20' W 118°02'511.9
2018-May-20 09:30N 33°16' W 118°00'611.8
2018-May-20 09:00N 33°10' W 117°58'611.4
2018-May-20 08:30N 33°05' W 117°55'612.2
2018-May-20 08:00N 32°59' W 117°52'816.0
2018-May-20 07:30N 32°52' W 117°50'816.1
2018-May-20 07:00N 32°44' W 117°48'1815.4
2018-May-20 05:48N 32°26' W 117°41'3619.7
2018-May-20 04:00N 32°00' W 117°12'43 1.7 350 / 101018.210.8 16.012.717.0
2018-May-19 03:00N 31°30' W 117°48'47 3.9 320 / 201018.210.8 15.013.317.0
2018-May-18 15:00N 32°06' W 117°12'3220.3 320 / 151019.310.8 16.012.717.0
2018-May-18 13:25N 32°19' W 117°46'3 6.7
2018-May-18 13:00N 32°22' W 117°47'3 6.6
2018-May-18 12:30N 32°25' W 117°47'3 6.7
2018-May-18 12:00N 32°29' W 117°47'3 6.8
2018-May-18 11:30N 32°32' W 117°48'3 6.6
2018-May-18 11:00N 32°35' W 117°48'3 6.6
2018-May-18 10:30N 32°39' W 117°49'3 6.7
2018-May-18 10:00N 32°42' W 117°50'3 6.7
2018-May-18 09:30N 32°45' W 117°52'3 6.6
2018-May-18 09:00N 32°48' W 117°53'3 6.5
2018-May-18 08:30N 32°51' W 117°54'3 6.4
2018-May-18 08:00N 32°54' W 117°56'3 6.6
2018-May-18 07:30N 32°57' W 117°57'3 6.6
2018-May-18 07:00N 33°00' W 117°59'3 6.6
2018-May-18 06:30N 33°03' W 117°60'3 6.9
2018-May-18 06:00N 33°07' W 118°01'4 7.3
2018-May-18 05:30N 33°10' W 118°02'5 9.5
2018-May-18 05:00N 33°14' W 118°04'5 9.5
2018-May-18 04:30N 33°19' W 118°06'13 9.9
2018-May-18 03:13N 33°31' W 118°11'2 9.8
2018-May-18 03:00N 33°33' W 118°12'6476.0
2018-May-18 03:00N 33°30' W 118°06'919.2 280 / 161019.310.8 16.012.717.0
2018-May-18 02:30N 33°38' W 118°13'4 9.0
2018-May-18 02:00N 33°42' W 118°11'3 6.4
2018-May-18 01:30N 33°45' W 118°11'0 0.1
2018-May-18 01:00N 33°45' W 118°11'  

Dump ship's entire track history